KESC/ESC METAR and TAF weather

Enter ICAO airport designator
Station Type Date Time Source
KESC METAR 2023/02/05 23:56 UTC NOAA

KESC 052356Z AUTO 35007KT 10SM OVC026 M05/M09 A3005 RMK AO2 SNE50 SLP193 P0000 6//// T10501094 11022 21050 FZRANO


Station Type Date Time Source
KESC Decoded METAR 2023/02/05 23:56 UTC NOAA

Escanaba, MI, United States (KESC) 45-45N 087-02W 187M
Feb 05, 2023 - 06:56 PM EST / 2023.02.05 2356 UTC
Wind: from the N (350 degrees) at 8 MPH (7 KT):0
Visibility: 10 mile(s):0
Sky conditions: overcast
Precipitation last hour: A trace
Temperature: 23.0 F (-5.0 C)
Windchill: 14 F (-10 C):1
Dew Point: 15.1 F (-9.4 C)
Relative Humidity: 71%
Pressure (altimeter): 30.05 in. Hg (1017 hPa)
ob: KESC 052356Z AUTO 35007KT 10SM OVC026 M05/M09 A3005 RMK AO2 SNE50 SLP193 P0000 6//// T10501094 11022 21050 FZRANO
cycle: 0

Station Type Date Time Source
KESC TAF UTC NOAA

Error!

Example: see airport list